createdAt,value
2023-02-02T00:02:03.313Z,99283.75
2023-02-02T00:04:34.649Z,99288.75
2023-02-02T00:07:04.873Z,99284.66
2023-02-02T00:09:34.178Z,99296.25
2023-02-02T00:12:02.514Z,99294.69
2023-02-02T00:14:30.572Z,99276.53
2023-02-02T00:16:59.154Z,99276.31
2023-02-02T00:19:30.153Z,99273.19
2023-02-02T00:21:59.562Z,99269.22
2023-02-02T00:24:27.380Z,99266.91
2023-02-02T00:26:57.093Z,99274.47
2023-02-02T00:29:28.325Z,99257.91
2023-02-02T00:31:56.559Z,99258.81
2023-02-02T00:34:24.868Z,99270.34
2023-02-02T00:36:53.834Z,99279.41
2023-02-02T00:39:25.974Z,99286.84
2023-02-02T00:41:54.036Z,99289.31
2023-02-02T00:44:39.448Z,99290.88
2023-02-02T00:47:07.388Z,99301.50
2023-02-02T00:49:35.413Z,99300.50
2023-02-02T00:52:03.616Z,99299.78
2023-02-02T00:54:32.874Z,99297.31
2023-02-02T00:57:00.815Z,99295.56
2023-02-02T00:59:28.764Z,99300.50
2023-02-02T01:01:56.661Z,99309.63
2023-02-02T01:04:24.695Z,99311.97
2023-02-02T01:06:52.722Z,99312.75
2023-02-02T01:09:20.582Z,99306.09
2023-02-02T01:11:50.412Z,99290.47
2023-02-02T01:14:18.377Z,99283.81
2023-02-02T01:16:46.296Z,99289.47
2023-02-02T01:19:14.602Z,99298.41
2023-02-02T01:21:43.008Z,99273.72
2023-02-02T01:24:10.952Z,99293.47
2023-02-02T01:26:39.002Z,99286.91
2023-02-02T01:29:08.453Z,99286.81
2023-02-02T01:31:36.337Z,99277.63
2023-02-02T01:34:04.230Z,99278.31
2023-02-02T01:36:32.160Z,99289.78
2023-02-02T01:39:00.072Z,99284.63
2023-02-02T01:41:29.021Z,99278.03
2023-02-02T01:43:59.468Z,99282.72
2023-02-02T01:46:31.249Z,99279.75
2023-02-02T01:49:08.526Z,99265.47
2023-02-02T01:51:42.976Z,99266.91
2023-02-02T01:54:15.330Z,99273.19
2023-02-02T01:56:47.921Z,99269.78
2023-02-02T01:59:18.430Z,99267.91
2023-02-02T02:01:49.655Z,99276.22
2023-02-02T02:04:18.610Z,99279.34
2023-02-02T02:06:48.225Z,99275.94
2023-02-02T02:09:16.667Z,99262.06
2023-02-02T02:11:44.560Z,99281.75
2023-02-02T02:14:33.739Z,99273.41
2023-02-02T02:17:17.955Z,99272.69
2023-02-02T02:20:26.052Z,99281.91
2023-02-02T02:23:51.762Z,99272.97
2023-02-02T02:26:44.355Z,99278.75
2023-02-02T02:29:44.966Z,99295.31
2023-02-02T02:32:24.534Z,99291.97
2023-02-02T02:35:01.409Z,99306.03
2023-02-02T02:37:44.034Z,99306.97
2023-02-02T02:40:21.446Z,99297.84
2023-02-02T02:42:53.156Z,99293.59
2023-02-02T02:45:22.766Z,99296.94
2023-02-02T02:47:53.409Z,99286.19
2023-02-02T02:50:22.211Z,99296.94
2023-02-02T02:52:57.965Z,99295.88
2023-02-02T02:55:29.025Z,99304.78
2023-02-02T02:58:05.189Z,99312.81
2023-02-02T03:00:52.274Z,99306.09
2023-02-02T03:03:44.636Z,99302.16
2023-02-02T03:06:22.562Z,99310.28
2023-02-02T03:08:55.328Z,99311.97
2023-02-02T03:11:23.541Z,99314.44
2023-02-02T03:13:51.546Z,99316.22
2023-02-02T03:16:19.480Z,99313.25
2023-02-02T03:18:48.676Z,99314.94
2023-02-02T03:21:16.786Z,99314.91
2023-02-02T03:23:44.683Z,99317.50
2023-02-02T03:26:12.625Z,99321.66
2023-02-02T03:28:40.920Z,99298.59
2023-02-02T03:31:09.010Z,99322.44
2023-02-02T03:33:38.082Z,99314.91
2023-02-02T03:36:08.185Z,99315.72
2023-02-02T03:38:36.152Z,99295.88
2023-02-02T03:41:04.219Z,99312.28
2023-02-02T03:43:32.132Z,99313.97
2023-02-02T03:46:01.791Z,99327.13
2023-02-02T03:48:29.682Z,99317.78
2023-02-02T03:50:57.680Z,99333.47
2023-02-02T03:53:27.257Z,99334.72
2023-02-02T03:55:55.141Z,99344.75
2023-02-02T03:58:23.163Z,99331.47
2023-02-02T04:00:51.055Z,99338.09
2023-02-02T04:03:18.892Z,99336.56
2023-02-02T04:05:50.791Z,99343.28
2023-02-02T04:08:18.696Z,99335.88
2023-02-02T04:10:47.955Z,99340.25
2023-02-02T04:13:15.814Z,99335.47
2023-02-02T04:15:43.680Z,99327.97
2023-02-02T04:18:11.696Z,99334.69
2023-02-02T04:20:40.373Z,99334.13
2023-02-02T04:23:08.288Z,99332.50
2023-02-02T04:25:36.070Z,99344.09
2023-02-02T04:28:05.765Z,99349.03
2023-02-02T04:30:33.614Z,99336.66
2023-02-02T04:33:01.434Z,99337.59
2023-02-02T04:35:29.313Z,99332.50
2023-02-02T04:37:57.462Z,99335.16
2023-02-02T04:40:25.746Z,99329.22
2023-02-02T04:42:53.593Z,99334.84
2023-02-02T04:45:23.010Z,99335.56
2023-02-02T04:47:51.895Z,99334.63
2023-02-02T04:50:19.902Z,99338.72
2023-02-02T04:52:48.133Z,99334.91
2023-02-02T04:55:16.418Z,99344.72
2023-02-02T04:57:44.575Z,99332.13
2023-02-02T05:00:14.114Z,99343.63
2023-02-02T05:02:43.564Z,99332.84
2023-02-02T05:05:13.459Z,99330.13
2023-02-02T05:07:41.507Z,99333.06
2023-02-02T05:10:10.895Z,99327.28
2023-02-02T05:12:38.822Z,99335.25
2023-02-02T05:15:07.537Z,99329.06
2023-02-02T05:17:35.454Z,99338.63
2023-02-02T05:20:04.960Z,99335.16
2023-02-02T05:22:32.885Z,99335.81
2023-02-02T05:25:00.671Z,99359.66
2023-02-02T05:27:28.511Z,99348.84
2023-02-02T05:29:56.405Z,99362.22
2023-02-02T05:32:24.365Z,99356.53
2023-02-02T05:34:52.308Z,99359.09
2023-02-02T05:37:21.552Z,99355.78
2023-02-02T05:39:49.857Z,99343.41
2023-02-02T05:42:17.725Z,99367.34
2023-02-02T05:44:45.533Z,99367.59
2023-02-02T05:47:13.360Z,99374.94
2023-02-02T05:49:41.301Z,99365.22
2023-02-02T05:52:11.080Z,99367.16
2023-02-02T05:54:40.389Z,99368.22
2023-02-02T05:57:08.385Z,99372.63
2023-02-02T05:59:36.246Z,99375.16
2023-02-02T06:02:04.174Z,99384.22
2023-02-02T06:04:32.120Z,99373.47
2023-02-02T06:06:59.956Z,99377.56
2023-02-02T06:09:27.807Z,99379.25
2023-02-02T06:11:57.182Z,99374.16
2023-02-02T06:14:25.067Z,99376.56
2023-02-02T06:16:52.974Z,99382.06
2023-02-02T06:19:20.955Z,99382.06
2023-02-02T06:21:49.014Z,99378.66
2023-02-02T06:24:16.923Z,99378.81
2023-02-02T06:26:44.853Z,99369.69
2023-02-02T06:29:14.887Z,99369.00
2023-02-02T06:31:43.399Z,99379.44
2023-02-02T06:34:14.693Z,99382.28
2023-02-02T06:36:43.050Z,99379.09
2023-02-02T06:39:11.039Z,99362.91
2023-02-02T06:41:39.047Z,99388.31
2023-02-02T06:44:07.104Z,99393.31
2023-02-02T06:46:36.416Z,99392.72
2023-02-02T06:49:04.317Z,99391.25
2023-02-02T06:51:32.162Z,99392.94
2023-02-02T06:54:00.036Z,99391.31
2023-02-02T06:56:28.113Z,99395.53
2023-02-02T06:58:56.045Z,99399.81
2023-02-02T07:01:24.119Z,99392.22
2023-02-02T07:03:53.553Z,99393.94
2023-02-02T07:06:23.042Z,99406.44
2023-02-02T07:08:59.329Z,99404.91
2023-02-02T07:11:30.679Z,99414.94
2023-02-02T07:13:58.973Z,99421.75
2023-02-02T07:16:26.759Z,99415.34
2023-02-02T07:18:57.029Z,99423.63
2023-02-02T07:21:28.274Z,99430.56
2023-02-02T07:23:56.171Z,99428.06
2023-02-02T07:26:24.035Z,99440.44
2023-02-02T07:28:52.983Z,99425.75
2023-02-02T07:31:23.221Z,99429.25
2023-02-02T07:33:51.551Z,99424.53
2023-02-02T07:36:23.405Z,99423.09
2023-02-02T07:38:53.828Z,99422.56
2023-02-02T07:41:22.693Z,99431.06
2023-02-02T07:43:51.248Z,99440.13
2023-02-02T07:46:20.126Z,99431.13
2023-02-02T07:48:48.490Z,99435.59
2023-02-02T07:51:18.280Z,99445.50
2023-02-02T07:53:49.631Z,99448.13
2023-02-02T07:56:19.945Z,99431.09
2023-02-02T07:58:48.617Z,99443.13
2023-02-02T08:01:17.556Z,99441.03
2023-02-02T08:03:45.660Z,99456.88
2023-02-02T08:06:16.394Z,99440.41
2023-02-02T08:08:44.506Z,99451.94
2023-02-02T08:11:16.062Z,99438.19
2023-02-02T08:13:45.180Z,99447.41
2023-02-02T08:16:13.328Z,99447.41
2023-02-02T08:18:42.261Z,99454.91
2023-02-02T08:21:10.342Z,99454.19
2023-02-02T08:23:39.216Z,99451.78
2023-02-02T08:26:08.375Z,99460.16
2023-02-02T08:28:38.452Z,99443.00
2023-02-02T08:31:09.047Z,99446.63
2023-02-02T08:33:38.537Z,99443.59
2023-02-02T08:36:09.294Z,99460.94
2023-02-02T08:38:37.216Z,99429.50
2023-02-02T08:41:09.972Z,99427.16
2023-02-02T08:43:40.130Z,99432.25
2023-02-02T08:46:09.767Z,99455.75
2023-02-02T08:48:38.104Z,99444.41
2023-02-02T08:51:07.269Z,99435.50
2023-02-02T08:53:35.665Z,99453.69
2023-02-02T08:56:05.502Z,99443.00
2023-02-02T08:58:34.628Z,99445.66
2023-02-02T09:01:09.163Z,99446.81
2023-02-02T09:03:40.150Z,99453.47
2023-02-02T09:06:10.731Z,99463.91
2023-02-02T09:08:38.952Z,99455.84
2023-02-02T09:11:08.172Z,99452.56
2023-02-02T09:13:36.689Z,99450.88
2023-02-02T09:16:08.085Z,99437.84
2023-02-02T09:18:36.105Z,99448.84
2023-02-02T09:21:06.944Z,99458.66
2023-02-02T09:23:36.874Z,99471.94
2023-02-02T09:26:12.334Z,99456.25
2023-02-02T09:28:41.360Z,99487.38
2023-02-02T09:31:10.972Z,99460.03
2023-02-02T09:33:39.117Z,99432.28
2023-02-02T09:36:08.538Z,99448.28
2023-02-02T09:38:38.921Z,99463.16
2023-02-02T09:41:41.692Z,99459.63
2023-02-02T09:44:18.370Z,99466.94
2023-02-02T09:47:00.425Z,99462.09
2023-02-02T09:49:36.172Z,99467.84
2023-02-02T09:52:09.991Z,99471.59
2023-02-02T09:54:43.929Z,99459.69
2023-02-02T09:57:18.805Z,99473.94
2023-02-02T09:59:50.617Z,99441.63
2023-02-02T10:02:25.219Z,99475.22
2023-02-02T10:04:57.164Z,99466.28
2023-02-02T10:07:33.313Z,99472.09
2023-02-02T10:10:04.436Z,99488.91
2023-02-02T10:12:43.681Z,99460.19
2023-02-02T10:15:18.621Z,99458.41
2023-02-02T10:17:52.883Z,99452.31
2023-02-02T10:20:34.088Z,99449.34
2023-02-02T10:23:12.535Z,99438.63
2023-02-02T10:25:46.942Z,99455.00
2023-02-02T10:28:19.739Z,99457.41
2023-02-02T10:30:57.138Z,99463.09
2023-02-02T10:33:36.941Z,99467.75
2023-02-02T10:36:17.759Z,99455.84
2023-02-02T10:38:55.090Z,99452.41
2023-02-02T10:41:31.681Z,99468.13
2023-02-02T10:44:14.701Z,99462.38
2023-02-02T10:46:44.906Z,99462.25
2023-02-02T10:49:20.787Z,99466.34
2023-02-02T10:51:58.024Z,99459.91
2023-02-02T10:54:58.210Z,99446.91
2023-02-02T10:57:38.489Z,99461.19
2023-02-02T11:00:15.889Z,99448.41
2023-02-02T11:02:43.766Z,99457.72
2023-02-02T11:05:39.286Z,99461.22
2023-02-02T11:08:14.473Z,99465.78
2023-02-02T11:10:43.421Z,99478.50
2023-02-02T11:13:16.885Z,99464.88
2023-02-02T11:15:44.950Z,99496.56
2023-02-02T11:18:28.230Z,99469.41
2023-02-02T11:20:58.470Z,99447.34
2023-02-02T11:23:28.501Z,99476.47
2023-02-02T11:26:02.252Z,99467.41
2023-02-02T11:28:35.226Z,99463.41
2023-02-02T11:31:03.510Z,99470.41
2023-02-02T11:33:34.220Z,99475.50
2023-02-02T11:36:05.871Z,99463.88
2023-02-02T11:38:33.944Z,99484.34
2023-02-02T11:41:05.063Z,99452.78
2023-02-02T11:43:41.161Z,99473.56
2023-02-02T11:46:19.886Z,99471.00
2023-02-02T11:48:53.782Z,99464.34
2023-02-02T11:51:25.805Z,99459.38
2023-02-02T11:54:04.836Z,99467.69
2023-02-02T11:56:35.803Z,99448.84
2023-02-02T11:59:05.513Z,99460.50
2023-02-02T12:01:35.519Z,99457.47
2023-02-02T12:04:04.612Z,99466.69
2023-02-02T12:06:38.374Z,99451.78
2023-02-02T12:09:13.337Z,99435.16
2023-02-02T12:11:53.918Z,99447.16
2023-02-02T12:14:33.832Z,99457.22
2023-02-02T12:17:13.059Z,99453.28
2023-02-02T12:19:57.298Z,99440.75
2023-02-02T12:22:41.957Z,99455.53
2023-02-02T12:25:32.301Z,99461.22
2023-02-02T12:28:06.228Z,99457.75
2023-02-02T12:30:41.934Z,99472.66
2023-02-02T12:33:27.155Z,99451.63
2023-02-02T12:36:08.898Z,99451.50
2023-02-02T12:38:57.709Z,99462.22
2023-02-02T12:41:36.050Z,99454.00
2023-02-02T12:44:13.836Z,99453.34
2023-02-02T12:46:56.902Z,99461.44
2023-02-02T12:49:38.520Z,99442.56
2023-02-02T12:52:22.589Z,99451.09
2023-02-02T12:55:08.164Z,99448.59
2023-02-02T12:57:51.494Z,99446.13
2023-02-02T13:00:38.403Z,99438.13
2023-02-02T13:03:28.362Z,99452.13
2023-02-02T13:06:23.305Z,99447.03
2023-02-02T13:08:56.844Z,99442.44
2023-02-02T13:11:37.012Z,99462.22
2023-02-02T13:14:11.047Z,99467.31
2023-02-02T13:16:44.260Z,99452.22
2023-02-02T13:19:19.370Z,99452.16
2023-02-02T13:21:49.317Z,99467.13
2023-02-02T13:24:26.572Z,99461.91
2023-02-02T13:26:59.411Z,99445.94
2023-02-02T13:29:43.957Z,99467.63
2023-02-02T13:32:23.233Z,99455.38
2023-02-02T13:34:54.691Z,99461.19
2023-02-02T13:37:30.312Z,99461.44
2023-02-02T13:40:01.820Z,99463.06
2023-02-02T13:42:42.022Z,99463.16
2023-02-02T13:45:36.553Z,99464.97
2023-02-02T13:48:16.499Z,99466.81
2023-02-02T13:51:04.222Z,99466.03
2023-02-02T13:53:48.138Z,99463.75
2023-02-02T13:56:40.555Z,99471.88
2023-02-02T13:59:33.784Z,99480.09
2023-02-02T14:02:02.529Z,99470.78
2023-02-02T14:04:32.051Z,99471.50
2023-02-02T14:07:07.208Z,99481.31
2023-02-02T14:09:38.696Z,99486.34
2023-02-02T14:12:09.767Z,99489.75
2023-02-02T14:14:40.172Z,99493.78
2023-02-02T14:17:47.937Z,99497.91
2023-02-02T14:20:44.959Z,99489.69
2023-02-02T14:23:51.389Z,99513.06
2023-02-02T14:26:40.280Z,99515.66
2023-02-02T14:29:36.672Z,99504.09
2023-02-02T14:32:34.745Z,99508.19
2023-02-02T14:35:53.449Z,99533.19
2023-02-02T14:38:32.587Z,99521.66
2023-02-02T14:41:11.004Z,99514.53
2023-02-02T14:43:46.256Z,99524.13
2023-02-02T14:46:35.555Z,99505.59
2023-02-02T14:49:14.320Z,99539.03
2023-02-02T14:52:05.236Z,99532.13
2023-02-02T14:54:38.203Z,99523.63
2023-02-02T14:57:22.692Z,99540.91
2023-02-02T14:59:52.507Z,99547.00
2023-02-02T15:02:25.144Z,99544.59
2023-02-02T15:05:46.360Z,99536.22
2023-02-02T15:08:23.171Z,99546.53
2023-02-02T15:11:27.765Z,99525.72
2023-02-02T15:14:06.850Z,99533.31
2023-02-02T15:16:38.503Z,99534.19
2023-02-02T15:19:15.166Z,99544.59
2023-02-02T15:21:46.618Z,99554.91
2023-02-02T15:24:23.444Z,99539.66
2023-02-02T15:26:54.501Z,99545.31
2023-02-02T15:29:38.374Z,99553.41
2023-02-02T15:32:08.351Z,99571.41
2023-02-02T15:34:41.977Z,99581.34
2023-02-02T15:37:16.239Z,99584.44
2023-02-02T15:39:49.085Z,99575.91
2023-02-02T15:42:38.917Z,99596.22
2023-02-02T15:45:07.601Z,99619.78
2023-02-02T15:47:41.923Z,99647.53
2023-02-02T15:50:19.969Z,99658.28
2023-02-02T15:52:51.079Z,99683.88
2023-02-02T15:55:25.037Z,99642.25
2023-02-02T15:57:55.139Z,99631.09
2023-02-02T16:00:27.101Z,99651.56
2023-02-02T16:03:01.233Z,99638.00
2023-02-02T16:05:44.645Z,99642.78
2023-02-02T16:08:19.345Z,99643.31
2023-02-02T16:10:49.349Z,99660.03
2023-02-02T16:13:26.577Z,99650.75
2023-02-02T16:15:59.436Z,99641.31
2023-02-02T16:18:27.697Z,99658.16
2023-02-02T16:20:58.240Z,99664.06
2023-02-02T16:23:31.811Z,99663.00
2023-02-02T16:26:02.368Z,99672.13
2023-02-02T16:28:30.648Z,99685.31
2023-02-02T16:31:01.142Z,99691.97
2023-02-02T16:33:37.826Z,99699.34
2023-02-02T16:36:24.433Z,99714.19
2023-02-02T16:38:55.815Z,99714.88
2023-02-02T16:41:29.191Z,99719.75
2023-02-02T16:43:57.089Z,99729.47
2023-02-02T16:46:44.329Z,99734.34
2023-02-02T16:49:18.823Z,99746.63
2023-02-02T16:51:48.776Z,99753.97
2023-02-02T16:54:21.644Z,99754.81
2023-02-02T16:56:52.037Z,99771.38
2023-02-02T16:59:27.952Z,99770.59
2023-02-02T17:01:58.993Z,99775.88
2023-02-02T17:04:28.902Z,99776.81
2023-02-02T17:07:05.422Z,99776.44
2023-02-02T17:09:37.426Z,99779.53
2023-02-02T17:12:33.252Z,99784.16
2023-02-02T17:15:05.047Z,99782.88
2023-02-02T17:17:33.040Z,99792.25
2023-02-02T17:20:00.938Z,99793.34
2023-02-02T17:22:28.933Z,99801.78
2023-02-02T17:24:59.633Z,99809.31
2023-02-02T17:27:33.461Z,99806.91
2023-02-02T17:30:03.014Z,99811.78
2023-02-02T17:32:30.835Z,99820.53
2023-02-02T17:34:58.795Z,99824.03
2023-02-02T17:37:26.701Z,99824.78
2023-02-02T17:39:54.552Z,99831.47
2023-02-02T17:42:25.854Z,99845.63
2023-02-02T17:44:53.933Z,99844.25
2023-02-02T17:47:21.786Z,99835.19
2023-02-02T17:49:49.635Z,99844.56
2023-02-02T17:52:17.493Z,99846.19
2023-02-02T17:54:45.360Z,99857.03
2023-02-02T17:57:13.195Z,99857.03
2023-02-02T17:59:42.463Z,99860.13
2023-02-02T18:02:13.470Z,99866.78
2023-02-02T18:04:41.347Z,99869.13
2023-02-02T18:07:10.269Z,99862.47
2023-02-02T18:09:38.147Z,99866.47
2023-02-02T18:12:06.509Z,99870.56
2023-02-02T18:14:34.311Z,99871.19
2023-02-02T18:17:03.448Z,99872.63
2023-02-02T18:19:32.213Z,99866.56
2023-02-02T18:22:00.022Z,99869.47
2023-02-02T18:24:28.178Z,99878.94
2023-02-02T18:26:56.062Z,99879.94
2023-02-02T18:29:24.039Z,99883.53
2023-02-02T18:31:51.939Z,99886.94
2023-02-02T18:34:21.179Z,99890.34
2023-02-02T18:36:49.040Z,99886.94
2023-02-02T18:39:16.959Z,99891.03
2023-02-02T18:41:44.782Z,99900.09
2023-02-02T18:44:12.666Z,99899.00
2023-02-02T18:46:40.635Z,99903.94
2023-02-02T18:49:08.621Z,99899.63
2023-02-02T18:51:38.267Z,99909.13
2023-02-02T18:54:06.124Z,99905.34
2023-02-02T18:56:33.933Z,99907.34
2023-02-02T18:59:01.809Z,99902.75
2023-02-02T19:01:30.042Z,99907.38
2023-02-02T19:03:58.353Z,99917.47
2023-02-02T19:06:44.153Z,99915.91
2023-02-02T19:09:17.057Z,99925.28
2023-02-02T19:11:47.392Z,99932.97
2023-02-02T19:14:18.263Z,99938.28
2023-02-02T19:16:47.525Z,99948.50
2023-02-02T19:19:23.896Z,99953.63
2023-02-02T19:21:55.676Z,99968.31
2023-02-02T19:24:26.554Z,99969.78
2023-02-02T19:26:54.808Z,99972.03
2023-02-02T19:29:24.913Z,99977.06
2023-02-02T19:31:54.212Z,99974.81
2023-02-02T19:34:23.907Z,99975.94
2023-02-02T19:36:52.298Z,99965.53
2023-02-02T19:39:21.933Z,99974.66
2023-02-02T19:41:52.752Z,99972.75
2023-02-02T19:44:23.682Z,99983.53
2023-02-02T19:46:53.805Z,99980.97
2023-02-02T19:49:28.196Z,99976.53
2023-02-02T19:51:56.702Z,99981.34
2023-02-02T19:54:33.898Z,99976.19
2023-02-02T19:57:11.755Z,99975.84
2023-02-02T19:59:40.024Z,99980.63
2023-02-02T20:02:30.556Z,99980.28
2023-02-02T20:05:07.482Z,99985.78
2023-02-02T20:07:35.463Z,99990.19
2023-02-02T20:10:16.030Z,99991.22
2023-02-02T20:12:45.365Z,100000.72
2023-02-02T20:15:29.042Z,100007.09
2023-02-02T20:17:58.770Z,100028.25
2023-02-02T20:20:28.773Z,100020.66
2023-02-02T20:22:58.289Z,100023.63
2023-02-02T20:25:26.198Z,100035.06
2023-02-02T20:27:58.890Z,100035.84
2023-02-02T20:30:30.800Z,100034.91
2023-02-02T20:33:01.495Z,100035.75
2023-02-02T20:35:37.089Z,100031.56
2023-02-02T20:38:18.920Z,100028.63
2023-02-02T20:40:46.904Z,100035.09
2023-02-02T20:43:16.104Z,100028.19
2023-02-02T20:45:44.366Z,100039.53
2023-02-02T20:48:12.716Z,100041.81
2023-02-02T20:50:40.584Z,100050.66
2023-02-02T20:53:08.939Z,100041.34
2023-02-02T20:55:37.044Z,100030.50
2023-02-02T20:58:05.322Z,100032.41
2023-02-02T21:00:34.584Z,100039.06
2023-02-02T21:03:02.382Z,100020.59
2023-02-02T21:05:30.276Z,100049.34
2023-02-02T21:07:58.093Z,100057.69
2023-02-02T21:10:27.522Z,100047.81
2023-02-02T21:12:55.556Z,100060.38
2023-02-02T21:15:23.524Z,100068.47
2023-02-02T21:17:52.835Z,100074.44
2023-02-02T21:20:21.211Z,100070.47
2023-02-02T21:22:49.304Z,100082.06
2023-02-02T21:25:17.510Z,100101.09
2023-02-02T21:27:45.647Z,100092.34
2023-02-02T21:30:15.251Z,100102.25
2023-02-02T21:32:44.124Z,100114.31
2023-02-02T21:35:14.324Z,100114.31
2023-02-02T21:37:44.107Z,100130.22
2023-02-02T21:40:15.202Z,100139.94
2023-02-02T21:42:48.411Z,100165.03
2023-02-02T21:45:33.190Z,100156.59
2023-02-02T21:48:03.318Z,100178.56
2023-02-02T21:50:35.614Z,100172.38
2023-02-02T21:53:20.428Z,100176.28
2023-02-02T21:55:53.389Z,100184.94
2023-02-02T21:58:25.426Z,100178.75
2023-02-02T22:00:54.807Z,100183.28
2023-02-02T22:03:28.141Z,100197.16
2023-02-02T22:06:14.780Z,100193.84
2023-02-02T22:08:42.620Z,100204.78
2023-02-02T22:11:23.226Z,100211.44
2023-02-02T22:13:51.558Z,100197.16
2023-02-02T22:16:21.436Z,100189.38
2023-02-02T22:18:49.543Z,100199.81
2023-02-02T22:21:20.994Z,100209.63
2023-02-02T22:23:49.170Z,100210.28
2023-02-02T22:26:29.316Z,100226.41
2023-02-02T22:28:57.587Z,100216.16
2023-02-02T22:31:25.678Z,100227.09
2023-02-02T22:33:53.965Z,100230.97
2023-02-02T22:36:23.137Z,100237.22
2023-02-02T22:38:50.983Z,100237.22
2023-02-02T22:41:18.860Z,100243.69
2023-02-02T22:43:46.664Z,100251.75
2023-02-02T22:46:14.521Z,100249.91
2023-02-02T22:48:42.422Z,100260.00
2023-02-02T22:51:10.254Z,100261.72
2023-02-02T22:53:39.497Z,100269.25
2023-02-02T22:56:07.976Z,100274.50
2023-02-02T22:58:35.920Z,100271.81
2023-02-02T23:01:03.756Z,100275.91
2023-02-02T23:03:31.656Z,100277.97
2023-02-02T23:05:59.519Z,100279.50
2023-02-02T23:08:27.381Z,100287.56
2023-02-02T23:10:56.663Z,100288.84
2023-02-02T23:13:24.464Z,100298.94
2023-02-02T23:15:52.292Z,100285.63
2023-02-02T23:18:20.196Z,100299.50
2023-02-02T23:20:48.809Z,100295.75
2023-02-02T23:23:16.690Z,100303.03
2023-02-02T23:25:44.552Z,100302.19
2023-02-02T23:28:13.928Z,100296.22
2023-02-02T23:30:42.314Z,100302.66
2023-02-02T23:33:10.168Z,100302.88
2023-02-02T23:35:38.090Z,100308.47
2023-02-02T23:38:05.989Z,100320.06
2023-02-02T23:40:33.810Z,100322.41
2023-02-02T23:43:01.622Z,100324.13
2023-02-02T23:45:30.838Z,100327.25
2023-02-02T23:47:58.749Z,100337.22
2023-02-02T23:50:26.974Z,100334.00
2023-02-02T23:52:55.275Z,100337.13
2023-02-02T23:55:23.518Z,100335.50
2023-02-02T23:57:51.425Z,100327.13
